Time;durP1;ratioP1;P1;durP2;ratioP2;P2;SDS_P1;SDS_P2;PMS_P1;PMS_P2;Temp;Humidity;BMP_temperature;BMP_pressure;BME280_temperature;BME280_humidity;BME280_pressure;Samples;Min_cycle;Max_cycle;Signal;HPM_P1;HPM_P2
2022/12/19 00:01:06;;;;;;;;;;;;;;;;;;5036282;28;20008;-75
2022/12/19 00:03:32;;;;;;;;;;;;;;;;;;5035615;28;19913;-74
2022/12/19 00:05:58;;;;;;;;;;;;;;;;;;5035171;28;20004;-74
2022/12/19 00:08:24;;;;;;;;;;;;;;;;;;5036409;28;19996;-74
2022/12/19 00:10:49;;;;;;;;;;;;;;;;;;5035561;28;20000;-74
2022/12/19 00:13:15;;;;;;;;;;;;;;;;;;5037233;28;20375;-75
2022/12/19 00:15:42;;;;;;;;;;;;;;;;;;5033914;28;19910;-74
2022/12/19 00:18:07;;;;;;;;;;;;;;;;;;5037323;28;19914;-75
2022/12/19 00:20:33;;;;;;;;;;;;;;;;;;5037844;28;19924;-75
2022/12/19 00:22:59;;;;;;;;;;;;;;;;;;5038212;28;20267;-74
2022/12/19 00:25:25;;;;;;;;;;;;;;;;;;5037576;28;19912;-75
2022/12/19 00:27:51;;;;;;;;;;;;;;;;;;5036347;28;20000;-73
2022/12/19 00:30:17;;;;;;;;;;;;;;;;;;5036073;28;19920;-74
2022/12/19 00:32:43;;;;;;;;;;;;;;;;;;5036019;28;19917;-74
2022/12/19 00:35:09;;;;;;;;;;;;;;;;;;5035384;28;20734;-73
2022/12/19 00:37:35;;;;;;;;;;;;;;;;;;5028633;28;19913;-74
2022/12/19 00:40:00;;;;;;;;;;;;;;;;;;5035680;28;19937;-73
2022/12/19 00:42:26;;;;;;;;;;;;;;;;;;5035135;28;19920;-74
2022/12/19 00:44:52;;;;;;;;;;;;;;;;;;5035129;28;19909;-74
2022/12/19 00:47:18;;;;;;;;;;;;;;;;;;5035647;28;19906;-73
2022/12/19 00:49:44;;;;;;;;;;;;;;;;;;5033543;28;19913;-73
2022/12/19 00:52:10;;;;;;;;;;;;;;;;;;5039655;28;20001;-74
2022/12/19 00:54:36;;;;;;;;;;;;;;;;;;5038224;28;20262;-73
2022/12/19 00:57:02;;;;;;;;;;;;;;;;;;5038775;28;19920;-74
2022/12/19 00:59:28;;;;;;;;;;;;;;;;;;5038028;28;19923;-73
2022/12/19 01:01:54;;;;;;;;;;;;;;;;;;5037697;28;19913;-73
2022/12/19 01:04:19;;;;;;;;;;;;;;;;;;5034342;28;20274;-74
2022/12/19 01:06:45;;;;;;;;;;;;;;;;;;5038497;28;19910;-73
2022/12/19 01:09:11;;;;;;;;;;;;;;;;;;5030773;28;19913;-75
2022/12/19 01:14:22;;;;;;;;;;;;;;;;;;5039432;28;20526;-75
2022/12/19 01:16:48;;;;;;;;;;;;;;;;;;5036735;28;19953;-74
2022/12/19 01:19:14;;;;;;;;;;;;;;;;;;5037549;28;19975;-74
2022/12/19 01:21:40;;;;;;;;;;;;;;;;;;5039579;28;20015;-74
2022/12/19 01:24:05;;;;;;;;;;;;;;;;;;5038547;28;19920;-75
2022/12/19 01:26:31;;;;;;;;;;;;;;;;;;5032545;28;19983;-75
2022/12/19 01:28:57;;;;;;;;;;;;;;;;;;5040407;28;19913;-75
2022/12/19 01:31:23;;;;;;;;;;;;;;;;;;5039288;28;19976;-74
2022/12/19 01:33:49;;;;;;;;;;;;;;;;;;5039804;28;19913;-75
2022/12/19 01:36:15;;;;;;;;;;;;;;;;;;5040343;28;19909;-74
2022/12/19 01:38:41;;;;;;;;;;;;;;;;;;5038816;28;19986;-75
2022/12/19 01:41:07;;;;;;;;;;;;;;;;;;5037385;28;19916;-75
2022/12/19 01:43:33;;;;;;;;;;;;;;;;;;5039565;28;19913;-74
2022/12/19 01:45:59;;;;;;;;;;;;;;;;;;5033541;28;20003;-72
2022/12/19 01:48:24;;;;;;;;;;;;;;;;;;5037128;28;19963;-75
2022/12/19 01:50:50;;;;;;;;;;;;;;;;;;5038854;28;19913;-73
2022/12/19 01:53:16;;;;;;;;;;;;;;;;;;5037223;28;19909;-75
2022/12/19 01:55:42;;;;;;;;;;;;;;;;;;5038683;28;19964;-74
2022/12/19 01:58:08;;;;;;;;;;;;;;;;;;5037249;28;20270;-74
2022/12/19 02:00:34;;;;;;;;;;;;;;;;;;5039203;28;19924;-74
2022/12/19 02:03:00;;;;;;;;;;;;;;;;;;5038607;28;20077;-75
2022/12/19 02:05:26;;;;;;;;;;;;;;;;;;5039214;28;19998;-74
2022/12/19 02:07:52;;;;;;;;;;;;;;;;;;5038741;28;19917;-74
2022/12/19 02:10:18;;;;;;;;;;;;;;;;;;5039143;28;20395;-75
2022/12/19 02:12:44;;;;;;;;;;;;;;;;;;5039459;28;19999;-74
2022/12/19 02:15:10;;;;;;;;;;;;;;;;;;5038937;28;19937;-75
2022/12/19 02:17:36;;;;;;;;;;;;;;;;;;5039357;28;19932;-75
2022/12/19 02:20:01;;;;;;;;;;;;;;;;;;5038690;28;20297;-75
2022/12/19 02:22:27;;;;;;;;;;;;;;;;;;5037518;28;19915;-73
2022/12/19 02:24:53;;;;;;;;;;;;;;;;;;5036222;28;20302;-74
2022/12/19 02:27:19;;;;;;;;;;;;;;;;;;5035344;28;19916;-73
2022/12/19 02:29:45;;;;;;;;;;;;;;;;;;5035497;28;20646;-73
2022/12/19 02:32:11;;;;;;;;;;;;;;;;;;5035900;28;19941;-74
2022/12/19 02:34:37;;;;;;;;;;;;;;;;;;5038181;28;19913;-75
2022/12/19 02:37:03;;;;;;;;;;;;;;;;;;5038173;28;19909;-75
2022/12/19 02:39:28;;;;;;;;;;;;;;;;;;5036832;28;19917;-75
2022/12/19 02:41:54;;;;;;;;;;;;;;;;;;5037957;28;19917;-73
2022/12/19 02:44:20;;;;;;;;;;;;;;;;;;5037355;28;19909;-74
2022/12/19 02:46:46;;;;;;;;;;;;;;;;;;5037233;28;20437;-73
2022/12/19 02:49:12;;;;;;;;;;;;;;;;;;5037543;28;19913;-74
2022/12/19 02:51:38;;;;;;;;;;;;;;;;;;5036765;28;19913;-74
2022/12/19 02:54:04;;;;;;;;;;;;;;;;;;5036204;28;19999;-73
2022/12/19 02:56:30;;;;;;;;;;;;;;;;;;5036203;28;19909;-74
2022/12/19 02:58:56;;;;;;;;;;;;;;;;;;5034859;28;19921;-73
2022/12/19 03:01:21;;;;;;;;;;;;;;;;;;5036287;28;19913;-74
2022/12/19 03:03:47;;;;;;;;;;;;;;;;;;5036224;28;19914;-73
2022/12/19 03:06:13;;;;;;;;;;;;;;;;;;5036776;28;19921;-74
2022/12/19 03:08:39;;;;;;;;;;;;;;;;;;5035872;28;19955;-73
2022/12/19 03:11:05;;;;;;;;;;;;;;;;;;5035890;28;19913;-74
2022/12/19 03:13:31;;;;;;;;;;;;;;;;;;5034365;28;19921;-73
2022/12/19 03:15:57;;;;;;;;;;;;;;;;;;5033163;28;19913;-73
2022/12/19 03:18:23;;;;;;;;;;;;;;;;;;5034909;28;20006;-73
2022/12/19 03:20:48;;;;;;;;;;;;;;;;;;5035040;28;19913;-74
2022/12/19 03:23:14;;;;;;;;;;;;;;;;;;5027929;28;20011;-73
2022/12/19 03:25:40;;;;;;;;;;;;;;;;;;5034251;28;19921;-73
2022/12/19 03:28:06;;;;;;;;;;;;;;;;;;5035641;28;19909;-73
2022/12/19 03:30:32;;;;;;;;;;;;;;;;;;5030879;28;20668;-71
2022/12/19 03:32:58;;;;;;;;;;;;;;;;;;5031657;28;20358;-73
2022/12/19 03:35:24;;;;;;;;;;;;;;;;;;5028896;28;19913;-73
2022/12/19 03:37:50;;;;;;;;;;;;;;;;;;5033271;28;20390;-72
2022/12/19 03:40:16;;;;;;;;;;;;;;;;;;5034484;28;19913;-74
2022/12/19 03:45:26;;;;;;;;;;;;;;;;;;5029441;28;19975;-72
2022/12/19 03:47:52;;;;;;;;;;;;;;;;;;5032176;28;19909;-71
2022/12/19 03:50:18;;;;;;;;;;;;;;;;;;5030663;28;20044;-74
2022/12/19 03:52:44;;;;;;;;;;;;;;;;;;5034442;28;20572;-74
2022/12/19 03:55:10;;;;;;;;;;;;;;;;;;5036269;28;19909;-75
2022/12/19 03:57:36;;;;;;;;;;;;;;;;;;5026633;28;20337;-71
2022/12/19 04:00:01;;;;;;;;;;;;;;;;;;5033725;28;20003;-73
2022/12/19 04:02:27;;;;;;;;;;;;;;;;;;5033223;28;20020;-74
2022/12/19 04:04:53;;;;;;;;;;;;;;;;;;5034161;28;20393;-73
2022/12/19 04:07:19;;;;;;;;;;;;;;;;;;5033844;28;19960;-74
2022/12/19 04:09:45;;;;;;;;;;;;;;;;;;5026744;28;20007;-73
2022/12/19 04:12:11;;;;;;;;;;;;;;;;;;5031722;28;19914;-72
2022/12/19 04:14:37;;;;;;;;;;;;;;;;;;5032127;28;19917;-73
2022/12/19 04:17:03;;;;;;;;;;;;;;;;;;5034158;28;19909;-73
2022/12/19 04:19:29;;;;;;;;;;;;;;;;;;5033934;28;19925;-74
2022/12/19 04:21:55;;;;;;;;;;;;;;;;;;5036738;28;19917;-71
2022/12/19 04:24:21;;;;;;;;;;;;;;;;;;5035712;28;19916;-71
2022/12/19 04:26:47;;;;;;;;;;;;;;;;;;5035980;28;19913;-71
2022/12/19 04:29:13;;;;;;;;;;;;;;;;;;5035808;28;19912;-71
2022/12/19 04:31:39;;;;;;;;;;;;;;;;;;5036116;28;19953;-71
2022/12/19 04:34:04;;;;;;;;;;;;;;;;;;5035813;28;19913;-71
2022/12/19 04:36:30;;;;;;;;;;;;;;;;;;5035746;28;20016;-70
2022/12/19 04:38:56;;;;;;;;;;;;;;;;;;5036045;28;19917;-71
2022/12/19 04:41:22;;;;;;;;;;;;;;;;;;5035606;28;19909;-71
2022/12/19 04:43:48;;;;;;;;;;;;;;;;;;5029027;28;20607;-71
2022/12/19 04:46:14;;;;;;;;;;;;;;;;;;5036065;28;19920;-70
2022/12/19 04:48:40;;;;;;;;;;;;;;;;;;5035960;28;19945;-70
2022/12/19 04:51:06;;;;;;;;;;;;;;;;;;5035380;28;19913;-71
2022/12/19 04:53:32;;;;;;;;;;;;;;;;;;5035541;28;19917;-71
2022/12/19 04:55:57;;;;;;;;;;;;;;;;;;5035613;28;19909;-71
2022/12/19 04:58:23;;;;;;;;;;;;;;;;;;5029151;28;19970;-71
2022/12/19 05:00:49;;;;;;;;;;;;;;;;;;5036120;28;19913;-71
2022/12/19 05:03:15;;;;;;;;;;;;;;;;;;5035219;28;19917;-71
2022/12/19 05:05:41;;;;;;;;;;;;;;;;;;5035546;28;20015;-71
2022/12/19 05:08:07;;;;;;;;;;;;;;;;;;5035839;28;19909;-70
2022/12/19 05:10:33;;;;;;;;;;;;;;;;;;5035198;28;19912;-71
2022/12/19 05:12:59;;;;;;;;;;;;;;;;;;5036096;28;19976;-70
2022/12/19 05:15:24;;;;;;;;;;;;;;;;;;5034966;28;19913;-70
2022/12/19 05:17:51;;;;;;;;;;;;;;;;;;5035050;28;19913;-69
2022/12/19 05:20:16;;;;;;;;;;;;;;;;;;5033636;28;19979;-71
2022/12/19 05:22:42;;;;;;;;;;;;;;;;;;5036548;28;19913;-72
2022/12/19 05:25:09;;;;;;;;;;;;;;;;;;5035917;28;20444;-71
2022/12/19 05:27:34;;;;;;;;;;;;;;;;;;5036356;28;19971;-73
2022/12/19 05:30:01;;;;;;;;;;;;;;;;;;5035851;28;19913;-71
2022/12/19 05:32:26;;;;;;;;;;;;;;;;;;5034032;28;19921;-72
2022/12/19 05:34:52;;;;;;;;;;;;;;;;;;5033473;28;19954;-71
2022/12/19 05:37:18;;;;;;;;;;;;;;;;;;5032256;28;19916;-72
2022/12/19 05:39:44;;;;;;;;;;;;;;;;;;5033119;28;19963;-65
2022/12/19 05:42:10;;;;;;;;;;;;;;;;;;5031771;28;19963;-65
2022/12/19 05:44:36;;;;;;;;;;;;;;;;;;5032228;28;19920;-66
2022/12/19 05:47:02;;;;;;;;;;;;;;;;;;5032246;28;20366;-68
2022/12/19 05:49:28;;;;;;;;;;;;;;;;;;5032573;28;19909;-69
2022/12/19 05:51:53;;;;;;;;;;;;;;;;;;5031668;28;19952;-68
2022/12/19 05:54:19;;;;;;;;;;;;;;;;;;5031394;28;19910;-68
2022/12/19 05:56:45;;;;;;;;;;;;;;;;;;5031358;28;19913;-69
2022/12/19 05:59:11;;;;;;;;;;;;;;;;;;5031716;28;19971;-68
2022/12/19 06:01:38;;;;;;;;;;;;;;;;;;5031610;28;19944;-68
2022/12/19 06:04:04;;;;;;;;;;;;;;;;;;5031680;28;19913;-68
2022/12/19 06:06:29;;;;;;;;;;;;;;;;;;5030696;28;19963;-67
2022/12/19 06:08:55;;;;;;;;;;;;;;;;;;5030695;28;19913;-68
2022/12/19 06:11:21;;;;;;;;;;;;;;;;;;5030627;28;20001;-69
2022/12/19 06:13:47;;;;;;;;;;;;;;;;;;5030747;28;20408;-69
2022/12/19 06:16:13;;;;;;;;;;;;;;;;;;5030841;28;19971;-69
2022/12/19 06:18:39;;;;;;;;;;;;;;;;;;5030793;28;20371;-70
2022/12/19 06:21:05;;;;;;;;;;;;;;;;;;5030985;28;19988;-66
2022/12/19 06:23:31;;;;;;;;;;;;;;;;;;5030969;28;20557;-69
2022/12/19 06:25:56;;;;;;;;;;;;;;;;;;5031097;28;19909;-66
2022/12/19 06:28:22;;;;;;;;;;;;;;;;;;5031383;28;19999;-70
2022/12/19 06:30:48;;;;;;;;;;;;;;;;;;5030762;28;19917;-70
2022/12/19 06:33:14;;;;;;;;;;;;;;;;;;5030581;28;20004;-67
2022/12/19 06:35:40;;;;;;;;;;;;;;;;;;5030336;28;19979;-67
2022/12/19 06:38:06;;;;;;;;;;;;;;;;;;5025059;28;19920;-70
2022/12/19 06:43:17;;;;;;;;;;;;;;;;;;5029598;28;19924;-69
2022/12/19 06:45:42;;;;;;;;;;;;;;;;;;5030354;28;19909;-69
2022/12/19 06:48:08;;;;;;;;;;;;;;;;;;5030917;28;19910;-69
2022/12/19 06:50:34;;;;;;;;;;;;;;;;;;5030597;28;19920;-69
2022/12/19 06:53:00;;;;;;;;;;;;;;;;;;5030515;28;19913;-68
2022/12/19 06:55:26;;;;;;;;;;;;;;;;;;5031038;28;19951;-69
2022/12/19 06:57:52;;;;;;;;;;;;;;;;;;5030813;28;19917;-69
2022/12/19 07:00:20;;;;;;;;;;;;;;;;;;5030340;28;20386;-69
2022/12/19 07:02:46;;;;;;;;;;;;;;;;;;5030435;28;19913;-69
2022/12/19 07:05:12;;;;;;;;;;;;;;;;;;5030387;28;19909;-69
2022/12/19 07:07:38;;;;;;;;;;;;;;;;;;5030149;28;19909;-69
2022/12/19 07:10:04;;;;;;;;;;;;;;;;;;5030074;28;19952;-69
2022/12/19 07:12:30;;;;;;;;;;;;;;;;;;5030102;28;19917;-68
2022/12/19 07:14:56;;;;;;;;;;;;;;;;;;5030604;28;19917;-69
2022/12/19 07:17:22;;;;;;;;;;;;;;;;;;5030004;28;19939;-67
2022/12/19 07:19:48;;;;;;;;;;;;;;;;;;5029959;28;20376;-69
2022/12/19 07:22:14;;;;;;;;;;;;;;;;;;5029937;28;19909;-69
2022/12/19 07:24:39;;;;;;;;;;;;;;;;;;5024006;28;19910;-69
2022/12/19 07:27:05;;;;;;;;;;;;;;;;;;5027579;28;19913;-69
2022/12/19 07:29:31;;;;;;;;;;;;;;;;;;5030448;28;20294;-69
2022/12/19 07:31:57;;;;;;;;;;;;;;;;;;5029972;28;19920;-69
2022/12/19 07:34:23;;;;;;;;;;;;;;;;;;5029540;28;19971;-69
2022/12/19 07:36:49;;;;;;;;;;;;;;;;;;5029711;28;19913;-69
2022/12/19 07:39:15;;;;;;;;;;;;;;;;;;5029721;28;20370;-69
2022/12/19 07:41:41;;;;;;;;;;;;;;;;;;5029963;28;19995;-69
2022/12/19 07:44:07;;;;;;;;;;;;;;;;;;5030084;28;20587;-69
2022/12/19 07:46:32;;;;;;;;;;;;;;;;;;5029859;28;20702;-69
2022/12/19 07:48:58;;;;;;;;;;;;;;;;;;5029588;28;19967;-69
2022/12/19 07:51:24;;;;;;;;;;;;;;;;;;5030061;28;19909;-69
2022/12/19 07:53:50;;;;;;;;;;;;;;;;;;5029400;28;19972;-69
2022/12/19 07:56:16;;;;;;;;;;;;;;;;;;5029686;28;19916;-69
2022/12/19 07:58:43;;;;;;;;;;;;;;;;;;5028600;28;19953;-68
2022/12/19 08:01:11;;;;;;;;;;;;;;;;;;5029211;28;19959;-69
2022/12/19 08:03:36;;;;;;;;;;;;;;;;;;5021560;28;20451;-68
2022/12/19 08:06:02;;;;;;;;;;;;;;;;;;5025807;28;19920;-68
2022/12/19 08:08:29;;;;;;;;;;;;;;;;;;5027049;28;19917;-69
2022/12/19 08:10:55;;;;;;;;;;;;;;;;;;5027358;28;20385;-69
2022/12/19 08:13:21;;;;;;;;;;;;;;;;;;5027036;28;20321;-70
2022/12/19 08:15:47;;;;;;;;;;;;;;;;;;5027222;28;19966;-70
2022/12/19 08:18:13;;;;;;;;;;;;;;;;;;5026870;28;19920;-69
2022/12/19 08:20:39;;;;;;;;;;;;;;;;;;5027453;28;19923;-69
2022/12/19 08:23:05;;;;;;;;;;;;;;;;;;5027005;28;19928;-69
2022/12/19 08:25:32;;;;;;;;;;;;;;;;;;5027772;28;19921;-70
2022/12/19 08:27:58;;;;;;;;;;;;;;;;;;5027437;28;19913;-68
2022/12/19 08:30:23;;;;;;;;;;;;;;;;;;5027134;28;19913;-68
2022/12/19 08:32:49;;;;;;;;;;;;;;;;;;5026874;28;19917;-67
2022/12/19 08:35:15;;;;;;;;;;;;;;;;;;5027012;28;19917;-68
2022/12/19 08:37:41;;;;;;;;;;;;;;;;;;5027567;28;19920;-68
2022/12/19 08:40:07;;;;;;;;;;;;;;;;;;5027459;28;19932;-68
2022/12/19 08:42:33;;;;;;;;;;;;;;;;;;5026920;28;20008;-68
2022/12/19 08:44:59;;;;;;;;;;;;;;;;;;5027538;28;19993;-68
2022/12/19 08:47:25;;;;;;;;;;;;;;;;;;5026494;28;19940;-68
2022/12/19 08:49:51;;;;;;;;;;;;;;;;;;5026175;28;19921;-68
2022/12/19 08:52:16;;;;;;;;;;;;;;;;;;5026933;28;19917;-68
2022/12/19 08:54:43;;;;;;;;;;;;;;;;;;5026452;28;19916;-68
2022/12/19 08:57:09;;;;;;;;;;;;;;;;;;5027464;28;19963;-69
2022/12/19 08:59:35;;;;;;;;;;;;;;;;;;5025802;28;19929;-69
2022/12/19 09:02:01;;;;;;;;;;;;;;;;;;5027213;28;19960;-66
2022/12/19 09:04:27;;;;;;;;;;;;;;;;;;5027040;28;19928;-69
2022/12/19 09:06:53;;;;;;;;;;;;;;;;;;5027486;28;19923;-68
2022/12/19 09:09:19;;;;;;;;;;;;;;;;;;5030979;28;19917;-68
2022/12/19 09:11:44;;;;;;;;;;;;;;;;;;5031110;28;19948;-69
2022/12/19 09:14:10;;;;;;;;;;;;;;;;;;5030653;28;20282;-69
2022/12/19 09:16:36;;;;;;;;;;;;;;;;;;5029716;28;19921;-69
2022/12/19 09:19:02;;;;;;;;;;;;;;;;;;5030892;28;19921;-69
2022/12/19 09:21:28;;;;;;;;;;;;;;;;;;5030561;28;20294;-69
2022/12/19 09:23:54;;;;;;;;;;;;;;;;;;5030121;28;20008;-69
2022/12/19 09:26:20;;;;;;;;;;;;;;;;;;5030792;28;19913;-69
2022/12/19 09:28:46;;;;;;;;;;;;;;;;;;5027900;28;19964;-69
2022/12/19 09:31:12;;;;;;;;;;;;;;;;;;5029881;28;19917;-69
2022/12/19 09:33:38;;;;;;;;;;;;;;;;;;5030060;28;19948;-68
2022/12/19 09:36:04;;;;;;;;;;;;;;;;;;5030392;28;19968;-68
2022/12/19 09:38:30;;;;;;;;;;;;;;;;;;5029893;28;19951;-69
2022/12/19 09:40:56;;;;;;;;;;;;;;;;;;5029405;28;20308;-67
2022/12/19 09:43:21;;;;;;;;;;;;;;;;;;5029929;28;19963;-68
2022/12/19 09:45:47;;;;;;;;;;;;;;;;;;5030259;28;19975;-69
2022/12/19 09:48:14;;;;;;;;;;;;;;;;;;5029577;28;20374;-69
2022/12/19 09:50:40;;;;;;;;;;;;;;;;;;5028793;28;19955;-69
2022/12/19 09:53:06;;;;;;;;;;;;;;;;;;5029730;28;19949;-69
2022/12/19 09:55:32;;;;;;;;;;;;;;;;;;5029743;28;19964;-69
2022/12/19 09:57:58;;;;;;;;;;;;;;;;;;5029393;28;19917;-68
2022/12/19 10:00:24;;;;;;;;;;;;;;;;;;5029245;28;20695;-69
2022/12/19 10:02:50;;;;;;;;;;;;;;;;;;5029742;28;19968;-69
2022/12/19 10:05:16;;;;;;;;;;;;;;;;;;5028836;28;20380;-68
2022/12/19 10:07:42;;;;;;;;;;;;;;;;;;5027988;28;19970;-69
2022/12/19 10:10:08;;;;;;;;;;;;;;;;;;5026166;28;19924;-67
2022/12/19 10:12:33;;;;;;;;;;;;;;;;;;5028916;28;19970;-68
2022/12/19 10:14:59;;;;;;;;;;;;;;;;;;5029844;28;19928;-67
2022/12/19 10:17:25;;;;;;;;;;;;;;;;;;5029205;28;20008;-68
2022/12/19 10:19:51;;;;;;;;;;;;;;;;;;5027244;28;19925;-69
2022/12/19 10:22:17;;;;;;;;;;;;;;;;;;5028424;28;19916;-67
2022/12/19 10:24:43;;;;;;;;;;;;;;;;;;5028017;28;19920;-67
2022/12/19 10:27:09;;;;;;;;;;;;;;;;;;5028298;28;19917;-69
2022/12/19 10:29:35;;;;;;;;;;;;;;;;;;5027777;28;19921;-69
2022/12/19 10:32:03;;;;;;;;;;;;;;;;;;5028979;28;19914;-69
2022/12/19 10:34:28;;;;;;;;;;;;;;;;;;5029211;28;20306;-69
2022/12/19 10:36:54;;;;;;;;;;;;;;;;;;5029060;28;19913;-67
2022/12/19 10:39:20;;;;;;;;;;;;;;;;;;5026828;28;19960;-68
2022/12/19 10:41:46;;;;;;;;;;;;;;;;;;5028165;28;19917;-68
2022/12/19 10:44:12;;;;;;;;;;;;;;;;;;5028624;28;20366;-69
2022/12/19 10:46:38;;;;;;;;;;;;;;;;;;5029613;28;19917;-68
2022/12/19 10:49:04;;;;;;;;;;;;;;;;;;5029406;28;19917;-69
2022/12/19 10:51:30;;;;;;;;;;;;;;;;;;5028431;28;20278;-68
2022/12/19 10:53:56;;;;;;;;;;;;;;;;;;5027913;28;19924;-69
2022/12/19 10:56:22;;;;;;;;;;;;;;;;;;5027460;28;19913;-69
2022/12/19 10:58:48;;;;;;;;;;;;;;;;;;5028096;28;19936;-69
2022/12/19 11:01:14;;;;;;;;;;;;;;;;;;5026147;28;20318;-69
2022/12/19 11:03:40;;;;;;;;;;;;;;;;;;5027450;28;19917;-68
2022/12/19 11:06:06;;;;;;;;;;;;;;;;;;5027866;28;19917;-68
2022/12/19 11:08:32;;;;;;;;;;;;;;;;;;5027803;28;19924;-67
2022/12/19 11:10:58;;;;;;;;;;;;;;;;;;5026807;28;19913;-70
2022/12/19 11:13:24;;;;;;;;;;;;;;;;;;5027710;28;19932;-70
2022/12/19 11:15:50;;;;;;;;;;;;;;;;;;5027824;28;20492;-70
2022/12/19 11:18:16;;;;;;;;;;;;;;;;;;5027041;28;20038;-70
2022/12/19 11:20:42;;;;;;;;;;;;;;;;;;5028501;28;19913;-70
2022/12/19 11:23:07;;;;;;;;;;;;;;;;;;5024485;28;19917;-68
2022/12/19 11:25:33;;;;;;;;;;;;;;;;;;5027495;28;19929;-69
2022/12/19 11:27:59;;;;;;;;;;;;;;;;;;5029374;28;19959;-70
2022/12/19 11:30:25;;;;;;;;;;;;;;;;;;5022150;28;19932;-70
2022/12/19 11:32:51;;;;;;;;;;;;;;;;;;5029401;28;19917;-71
2022/12/19 11:35:17;;;;;;;;;;;;;;;;;;5029290;28;19915;-69
2022/12/19 11:37:43;;;;;;;;;;;;;;;;;;5029423;28;19999;-70
2022/12/19 11:40:09;;;;;;;;;;;;;;;;;;5027021;28;19920;-69
2022/12/19 11:42:35;;;;;;;;;;;;;;;;;;5029541;28;19917;-71
2022/12/19 11:45:00;;;;;;;;;;;;;;;;;;5030028;28;20405;-71
2022/12/19 11:47:26;;;;;;;;;;;;;;;;;;5029574;28;19921;-70
2022/12/19 11:49:52;;;;;;;;;;;;;;;;;;5029618;28;19917;-71
2022/12/19 11:52:18;;;;;;;;;;;;;;;;;;5029814;28;19915;-70
2022/12/19 11:54:44;;;;;;;;;;;;;;;;;;5029361;28;19913;-70
2022/12/19 11:57:10;;;;;;;;;;;;;;;;;;5029855;28;19913;-70
2022/12/19 11:59:36;;;;;;;;;;;;;;;;;;5029086;28;19917;-70
2022/12/19 12:02:02;;;;;;;;;;;;;;;;;;5029769;28;19913;-70
2022/12/19 12:04:28;;;;;;;;;;;;;;;;;;5029646;28;19971;-70
2022/12/19 12:06:54;;;;;;;;;;;;;;;;;;5029481;28;19909;-70
2022/12/19 12:09:20;;;;;;;;;;;;;;;;;;5025494;28;19944;-70
2022/12/19 12:11:45;;;;;;;;;;;;;;;;;;5026465;28;19948;-71
2022/12/19 12:14:11;;;;;;;;;;;;;;;;;;5029325;28;19925;-71
2022/12/19 12:16:37;;;;;;;;;;;;;;;;;;5029328;28;19917;-71
2022/12/19 12:19:03;;;;;;;;;;;;;;;;;;5029127;28;19925;-71
2022/12/19 12:21:29;;;;;;;;;;;;;;;;;;5029434;28;20404;-71
2022/12/19 12:23:55;;;;;;;;;;;;;;;;;;5029012;28;19919;-71
2022/12/19 12:26:21;;;;;;;;;;;;;;;;;;5029207;28;19959;-70
2022/12/19 12:28:47;;;;;;;;;;;;;;;;;;5029438;28;19909;-71
2022/12/19 12:31:13;;;;;;;;;;;;;;;;;;5028738;28;19920;-71
2022/12/19 12:33:39;;;;;;;;;;;;;;;;;;5029292;28;20305;-70
2022/12/19 12:36:05;;;;;;;;;;;;;;;;;;5029612;28;20004;-70
2022/12/19 12:38:31;;;;;;;;;;;;;;;;;;5028387;28;20337;-71
2022/12/19 12:40:57;;;;;;;;;;;;;;;;;;5029806;28;19917;-71
2022/12/19 12:43:23;;;;;;;;;;;;;;;;;;5033167;28;20372;-71
2022/12/19 12:45:49;;;;;;;;;;;;;;;;;;5033324;28;19987;-71
2022/12/19 12:48:15;;;;;;;;;;;;;;;;;;5033163;28;19924;-71
2022/12/19 12:50:40;;;;;;;;;;;;;;;;;;5032954;28;19971;-71
2022/12/19 12:53:06;;;;;;;;;;;;;;;;;;5032816;28;19956;-71
2022/12/19 12:55:32;;;;;;;;;;;;;;;;;;5033034;28;20427;-70
2022/12/19 12:57:58;;;;;;;;;;;;;;;;;;5033169;28;19921;-71
2022/12/19 13:00:24;;;;;;;;;;;;;;;;;;5032781;28;20020;-71
2022/12/19 13:02:50;;;;;;;;;;;;;;;;;;5032736;28;20020;-70
2022/12/19 13:05:16;;;;;;;;;;;;;;;;;;5032562;28;19952;-71
2022/12/19 13:07:42;;;;;;;;;;;;;;;;;;5032250;28;20337;-71
2022/12/19 13:10:08;;;;;;;;;;;;;;;;;;5032956;28;19909;-70
2022/12/19 13:15:19;;;;;;;;;;;;;;;;;;5032395;28;20012;-71
2022/12/19 13:17:45;;;;;;;;;;;;;;;;;;5032303;28;19996;-70
2022/12/19 13:20:10;;;;;;;;;;;;;;;;;;5032457;28;19921;-70
2022/12/19 13:22:36;;;;;;;;;;;;;;;;;;5031939;28;19913;-70
2022/12/19 13:25:02;;;;;;;;;;;;;;;;;;5032840;28;19996;-71
2022/12/19 13:27:28;;;;;;;;;;;;;;;;;;5032324;28;19916;-70
2022/12/19 13:29:54;;;;;;;;;;;;;;;;;;5032214;28;20008;-71
2022/12/19 13:32:20;;;;;;;;;;;;;;;;;;5032419;28;20432;-68
2022/12/19 13:34:46;;;;;;;;;;;;;;;;;;5032257;28;20340;-71
2022/12/19 13:37:12;;;;;;;;;;;;;;;;;;5031783;28;19913;-71
2022/12/19 13:39:39;;;;;;;;;;;;;;;;;;5032285;28;20483;-70
2022/12/19 13:44:50;;;;;;;;;;;;;;;;;;5032811;28;19916;-70
2022/12/19 13:47:16;;;;;;;;;;;;;;;;;;5031923;28;20282;-70
2022/12/19 13:49:42;;;;;;;;;;;;;;;;;;5031876;28;19909;-70
2022/12/19 13:52:07;;;;;;;;;;;;;;;;;;5031701;28;19920;-71
2022/12/19 13:54:33;;;;;;;;;;;;;;;;;;5030819;28;19976;-70
2022/12/19 13:56:59;;;;;;;;;;;;;;;;;;5031887;28;19958;-70
2022/12/19 13:59:25;;;;;;;;;;;;;;;;;;5032093;28;19979;-71
2022/12/19 14:01:51;;;;;;;;;;;;;;;;;;5031736;28;19931;-70
2022/12/19 14:04:17;;;;;;;;;;;;;;;;;;5031727;28;19917;-70
2022/12/19 14:06:43;;;;;;;;;;;;;;;;;;5024671;28;19924;-70
2022/12/19 14:09:09;;;;;;;;;;;;;;;;;;5031917;28;19996;-71
2022/12/19 14:11:35;;;;;;;;;;;;;;;;;;5031634;28;19966;-70
2022/12/19 14:16:45;;;;;;;;;;;;;;;;;;5031527;28;19951;-70
2022/12/19 14:19:11;;;;;;;;;;;;;;;;;;5030904;28;20369;-70
2022/12/19 14:21:37;;;;;;;;;;;;;;;;;;5031046;28;19917;-71
2022/12/19 14:24:03;;;;;;;;;;;;;;;;;;5031522;28;20326;-70
2022/12/19 14:26:29;;;;;;;;;;;;;;;;;;5031409;28;20015;-70
2022/12/19 14:28:55;;;;;;;;;;;;;;;;;;5031195;28;20294;-70
2022/12/19 14:31:21;;;;;;;;;;;;;;;;;;5031073;28;19913;-71
2022/12/19 14:33:46;;;;;;;;;;;;;;;;;;5030696;28;19913;-71
2022/12/19 14:36:12;;;;;;;;;;;;;;;;;;5030848;28;19909;-70
2022/12/19 14:38:38;;;;;;;;;;;;;;;;;;5030878;28;19963;-67
2022/12/19 14:41:04;;;;;;;;;;;;;;;;;;5025225;28;19920;-71
2022/12/19 14:43:39;;;;;;;;;;;;;;;;;;5027113;28;19916;-70
2022/12/19 14:46:05;;;;;;;;;;;;;;;;;;5029061;28;19917;-69
2022/12/19 14:48:31;;;;;;;;;;;;;;;;;;5028511;28;19924;-70
2022/12/19 14:50:57;;;;;;;;;;;;;;;;;;5028008;28;20362;-69
2022/12/19 14:53:23;;;;;;;;;;;;;;;;;;5029251;28;20067;-70
2022/12/19 14:55:49;;;;;;;;;;;;;;;;;;5028933;28;20271;-69
2022/12/19 14:58:14;;;;;;;;;;;;;;;;;;5028340;28;19924;-68
2022/12/19 15:00:42;;;;;;;;;;;;;;;;;;5027779;28;19924;-70
2022/12/19 15:03:08;;;;;;;;;;;;;;;;;;5028059;28;19917;-70
2022/12/19 15:05:33;;;;;;;;;;;;;;;;;;5028125;28;19958;-71
2022/12/19 15:08:00;;;;;;;;;;;;;;;;;;5027623;28;19924;-70
2022/12/19 15:10:26;;;;;;;;;;;;;;;;;;5028355;28;19924;-70
2022/12/19 15:15:37;;;;;;;;;;;;;;;;;;5026646;28;20588;-71
2022/12/19 15:18:03;;;;;;;;;;;;;;;;;;5027848;28;19985;-70
2022/12/19 15:20:29;;;;;;;;;;;;;;;;;;5027807;28;20401;-69
2022/12/19 15:22:55;;;;;;;;;;;;;;;;;;5028421;28;19971;-69
2022/12/19 15:25:21;;;;;;;;;;;;;;;;;;5027830;28;19924;-70
2022/12/19 15:27:46;;;;;;;;;;;;;;;;;;5027800;28;19917;-70
2022/12/19 15:30:12;;;;;;;;;;;;;;;;;;5028886;28;19924;-70
2022/12/19 15:32:38;;;;;;;;;;;;;;;;;;5026606;28;19944;-69
2022/12/19 15:35:04;;;;;;;;;;;;;;;;;;5028155;28;19914;-70
2022/12/19 15:37:30;;;;;;;;;;;;;;;;;;5027864;28;20011;-70
2022/12/19 15:39:56;;;;;;;;;;;;;;;;;;5027589;28;19941;-69
2022/12/19 15:42:22;;;;;;;;;;;;;;;;;;5026645;28;19917;-70
2022/12/19 15:44:48;;;;;;;;;;;;;;;;;;5027738;28;19960;-64
2022/12/19 15:47:14;;;;;;;;;;;;;;;;;;5027410;28;19921;-70
2022/12/19 15:49:40;;;;;;;;;;;;;;;;;;5027394;28;19913;-70
2022/12/19 15:52:05;;;;;;;;;;;;;;;;;;5026143;28;19920;-70
2022/12/19 15:54:31;;;;;;;;;;;;;;;;;;5027577;28;20644;-69
2022/12/19 15:56:57;;;;;;;;;;;;;;;;;;5028227;28;20011;-70
2022/12/19 15:59:23;;;;;;;;;;;;;;;;;;5028210;28;20305;-69
2022/12/19 16:01:49;;;;;;;;;;;;;;;;;;5026387;28;19925;-71
2022/12/19 16:04:15;;;;;;;;;;;;;;;;;;5026106;28;19917;-69
2022/12/19 16:06:41;;;;;;;;;;;;;;;;;;5027296;28;19963;-71
2022/12/19 16:09:08;;;;;;;;;;;;;;;;;;5025652;28;19924;-67
2022/12/19 16:11:34;;;;;;;;;;;;;;;;;;5026226;28;20440;-71
2022/12/19 16:14:00;;;;;;;;;;;;;;;;;;5026015;28;19925;-71
2022/12/19 16:16:26;;;;;;;;;;;;;;;;;;5026383;28;19913;-71
2022/12/19 16:18:52;;;;;;;;;;;;;;;;;;5027178;28;19948;-70
2022/12/19 16:21:18;;;;;;;;;;;;;;;;;;5028155;28;20016;-70
2022/12/19 16:23:44;;;;;;;;;;;;;;;;;;5027011;28;19921;-70
2022/12/19 16:26:10;;;;;;;;;;;;;;;;;;5027373;28;20642;-69
2022/12/19 16:28:37;;;;;;;;;;;;;;;;;;5027570;28;19917;-70
2022/12/19 16:31:03;;;;;;;;;;;;;;;;;;5026672;28;19913;-69
2022/12/19 16:33:29;;;;;;;;;;;;;;;;;;5025892;28;19970;-70
2022/12/19 16:35:54;;;;;;;;;;;;;;;;;;5026568;28;20393;-69
2022/12/19 16:38:20;;;;;;;;;;;;;;;;;;5027123;28;19913;-70
2022/12/19 16:40:46;;;;;;;;;;;;;;;;;;5031671;28;20382;-70
2022/12/19 16:43:12;;;;;;;;;;;;;;;;;;5027230;28;19995;-70
2022/12/19 16:45:38;;;;;;;;;;;;;;;;;;5026600;28;19921;-71
2022/12/19 16:48:04;;;;;;;;;;;;;;;;;;5027188;28;20390;-68
2022/12/19 16:50:30;;;;;;;;;;;;;;;;;;5032480;28;19917;-71
2022/12/19 16:52:56;;;;;;;;;;;;;;;;;;5026919;28;20015;-69
2022/12/19 16:55:22;;;;;;;;;;;;;;;;;;5024521;28;19917;-69